sensor_id;sensor_type;location;lat;lon;timestamp;pressure;altitude;pressure_sealevel;temperature;humidity
9721;BME280;4899;42.644;23.366;2023-01-29T00:02:09;94306.06;;;-0.18;100.00
9721;BME280;4899;42.644;23.366;2023-01-29T00:04:35;94318.50;;;-0.11;100.00
9721;BME280;4899;42.644;23.366;2023-01-29T00:07:00;94308.41;;;-0.11;100.00
9721;BME280;4899;42.644;23.366;2023-01-29T00:09:26;94308.94;;;-0.09;100.00
9721;BME280;4899;42.644;23.366;2023-01-29T00:11:52;94309.97;;;-0.05;100.00
9721;BME280;4899;42.644;23.366;2023-01-29T00:14:18;94318.31;;;-0.05;100.00
9721;BME280;4899;42.644;23.366;2023-01-29T00:16:43;94317.16;;;0.03;100.00
9721;BME280;4899;42.644;23.366;2023-01-29T00:19:09;94347.50;;;0.03;100.00
9721;BME280;4899;42.644;23.366;2023-01-29T00:21:35;94312.84;;;0.04;100.00
9721;BME280;4899;42.644;23.366;2023-01-29T00:24:01;94317.81;;;-0.07;100.00
9721;BME280;4899;42.644;23.366;2023-01-29T00:26:26;94336.38;;;0.04;100.00
9721;BME280;4899;42.644;23.366;2023-01-29T00:28:52;94326.19;;;-0.01;100.00
9721;BME280;4899;42.644;23.366;2023-01-29T00:31:21;94334.31;;;0.01;100.00
9721;BME280;4899;42.644;23.366;2023-01-29T00:33:48;94336.53;;;-0.03;100.00
9721;BME280;4899;42.644;23.366;2023-01-29T00:36:15;94330.31;;;0.05;100.00
9721;BME280;4899;42.644;23.366;2023-01-29T00:38:41;94320.63;;;-0.03;100.00
9721;BME280;4899;42.644;23.366;2023-01-29T00:41:11;94331.84;;;0.06;100.00
9721;BME280;4899;42.644;23.366;2023-01-29T00:43:56;94348.00;;;0.05;100.00
9721;BME280;4899;42.644;23.366;2023-01-29T00:46:40;94337.44;;;0.08;100.00
9721;BME280;4899;42.644;23.366;2023-01-29T00:49:06;94334.25;;;-0.04;100.00
9721;BME280;4899;42.644;23.366;2023-01-29T00:51:32;94315.03;;;-0.05;100.00
9721;BME280;4899;42.644;23.366;2023-01-29T00:53:58;94322.22;;;0.03;100.00
9721;BME280;4899;42.644;23.366;2023-01-29T00:56:28;94323.66;;;-0.01;100.00
9721;BME280;4899;42.644;23.366;2023-01-29T00:58:54;94326.66;;;-0.04;100.00
9721;BME280;4899;42.644;23.366;2023-01-29T01:01:21;94344.44;;;0.01;100.00
9721;BME280;4899;42.644;23.366;2023-01-29T01:04:08;94342.59;;;-0.04;100.00
9721;BME280;4899;42.644;23.366;2023-01-29T01:06:36;94328.38;;;-0.10;100.00
9721;BME280;4899;42.644;23.366;2023-01-29T01:09:02;94327.63;;;-0.10;100.00
9721;BME280;4899;42.644;23.366;2023-01-29T01:11:46;94336.78;;;-0.04;100.00
9721;BME280;4899;42.644;23.366;2023-01-29T01:14:11;94330.91;;;-0.10;100.00
9721;BME280;4899;42.644;23.366;2023-01-29T01:16:37;94332.44;;;-0.09;100.00
9721;BME280;4899;42.644;23.366;2023-01-29T01:19:03;94322.56;;;-0.10;100.00
9721;BME280;4899;42.644;23.366;2023-01-29T01:21:29;94324.09;;;-0.09;100.00
9721;BME280;4899;42.644;23.366;2023-01-29T01:23:54;94321.13;;;-0.01;100.00
9721;BME280;4899;42.644;23.366;2023-01-29T01:26:20;94320.28;;;-0.12;100.00
9721;BME280;4899;42.644;23.366;2023-01-29T01:28:45;94322.56;;;-0.10;100.00
9721;BME280;4899;42.644;23.366;2023-01-29T01:31:12;94312.47;;;-0.10;100.00
9721;BME280;4899;42.644;23.366;2023-01-29T01:33:38;94316.56;;;-0.04;100.00
9721;BME280;4899;42.644;23.366;2023-01-29T01:36:05;94316.47;;;-0.14;100.00
9721;BME280;4899;42.644;23.366;2023-01-29T01:38:38;94314.66;;;-0.19;100.00
9721;BME280;4899;42.644;23.366;2023-01-29T01:41:15;94338.41;;;-0.20;100.00
9721;BME280;4899;42.644;23.366;2023-01-29T01:43:49;94313.38;;;-0.21;100.00
9721;BME280;4899;42.644;23.366;2023-01-29T01:46:14;94317.72;;;-0.17;100.00
9721;BME280;4899;42.644;23.366;2023-01-29T01:48:41;94316.66;;;-0.21;100.00
9721;BME280;4899;42.644;23.366;2023-01-29T01:51:07;94326.53;;;-0.19;100.00
9721;BME280;4899;42.644;23.366;2023-01-29T01:53:39;94333.34;;;-0.20;100.00
9721;BME280;4899;42.644;23.366;2023-01-29T01:56:20;94322.81;;;-0.12;100.00
9721;BME280;4899;42.644;23.366;2023-01-29T01:58:56;94328.09;;;-0.13;100.00
9721;BME280;4899;42.644;23.366;2023-01-29T02:01:24;94344.97;;;-0.19;100.00
9721;BME280;4899;42.644;23.366;2023-01-29T02:04:00;94340.75;;;-0.13;100.00
9721;BME280;4899;42.644;23.366;2023-01-29T02:06:45;94344.50;;;-0.16;100.00
9721;BME280;4899;42.644;23.366;2023-01-29T02:09:42;94329.97;;;-0.25;100.00
9721;BME280;4899;42.644;23.366;2023-01-29T02:12:12;94335.63;;;-0.18;100.00
9721;BME280;4899;42.644;23.366;2023-01-29T02:14:39;94338.41;;;-0.20;100.00
9721;BME280;4899;42.644;23.366;2023-01-29T02:17:07;94343.47;;;-0.20;100.00
9721;BME280;4899;42.644;23.366;2023-01-29T02:19:49;94349.91;;;-0.29;100.00
9721;BME280;4899;42.644;23.366;2023-01-29T02:25:29;94349.28;;;-0.19;100.00
9721;BME280;4899;42.644;23.366;2023-01-29T02:36:46;94348.13;;;-0.28;100.00
9721;BME280;4899;42.644;23.366;2023-01-29T02:39:38;94359.53;;;-0.26;100.00
9721;BME280;4899;42.644;23.366;2023-01-29T02:44:54;94369.34;;;-0.29;100.00
9721;BME280;4899;42.644;23.366;2023-01-29T02:47:46;94353.63;;;-0.37;100.00
9721;BME280;4899;42.644;23.366;2023-01-29T02:50:32;94372.94;;;-0.25;100.00
9721;BME280;4899;42.644;23.366;2023-01-29T02:54:12;94373.66;;;-0.30;100.00
9721;BME280;4899;42.644;23.366;2023-01-29T02:56:21;94373.88;;;-0.32;100.00
9721;BME280;4899;42.644;23.366;2023-01-29T02:58:58;94350.22;;;-0.47;100.00
9721;BME280;4899;42.644;23.366;2023-01-29T03:01:43;94366.72;;;-0.40;100.00
9721;BME280;4899;42.644;23.366;2023-01-29T03:04:17;94364.19;;;-0.40;100.00
9721;BME280;4899;42.644;23.366;2023-01-29T03:06:48;94364.06;;;-0.50;100.00
9721;BME280;4899;42.644;23.366;2023-01-29T03:09:24;94360.94;;;-0.57;100.00
9721;BME280;4899;42.644;23.366;2023-01-29T03:11:54;94373.34;;;-0.55;100.00
9721;BME280;4899;42.644;23.366;2023-01-29T03:14:37;94374.88;;;-0.54;100.00
9721;BME280;4899;42.644;23.366;2023-01-29T03:17:25;94372.88;;;-0.52;100.00
9721;BME280;4899;42.644;23.366;2023-01-29T03:19:53;94368.06;;;-0.54;100.00
9721;BME280;4899;42.644;23.366;2023-01-29T03:22:18;94364.47;;;-0.36;100.00
9721;BME280;4899;42.644;23.366;2023-01-29T03:24:56;94371.00;;;-0.40;100.00
9721;BME280;4899;42.644;23.366;2023-01-29T03:30:26;94378.28;;;-0.44;100.00
9721;BME280;4899;42.644;23.366;2023-01-29T03:33:13;94373.88;;;-0.32;100.00
9721;BME280;4899;42.644;23.366;2023-01-29T03:36:07;94374.41;;;-0.29;100.00
9721;BME280;4899;42.644;23.366;2023-01-29T03:38:30;94379.75;;;-0.26;100.00
9721;BME280;4899;42.644;23.366;2023-01-29T03:41:27;94387.94;;;-0.19;100.00
9721;BME280;4899;42.644;23.366;2023-01-29T03:47:03;94377.53;;;-0.22;100.00
9721;BME280;4899;42.644;23.366;2023-01-29T03:50:04;94371.41;;;-0.26;100.00
9721;BME280;4899;42.644;23.366;2023-01-29T03:52:46;94359.53;;;-0.26;100.00
9721;BME280;4899;42.644;23.366;2023-01-29T03:55:27;94398.53;;;-0.22;100.00
9721;BME280;4899;42.644;23.366;2023-01-29T03:58:02;94372.72;;;-0.24;100.00
9721;BME280;4899;42.644;23.366;2023-01-29T04:01:04;94369.78;;;-0.38;100.00
9721;BME280;4899;42.644;23.366;2023-01-29T04:03:37;94366.31;;;-0.32;100.00
9721;BME280;4899;42.644;23.366;2023-01-29T04:06:20;94373.06;;;-0.37;100.00
9721;BME280;4899;42.644;23.366;2023-01-29T04:11:42;94376.69;;;-0.28;100.00
9721;BME280;4899;42.644;23.366;2023-01-29T04:14:09;94369.34;;;-0.29;100.00
9721;BME280;4899;42.644;23.366;2023-01-29T04:16:43;94373.50;;;-0.23;100.00
9721;BME280;4899;42.644;23.366;2023-01-29T04:19:11;94378.16;;;-0.32;100.00
9721;BME280;4899;42.644;23.366;2023-01-29T04:21:37;94381.00;;;-0.28;100.00
9721;BME280;4899;42.644;23.366;2023-01-29T04:24:04;94385.47;;;-0.36;100.00
9721;BME280;4899;42.644;23.366;2023-01-29T04:27:17;94377.78;;;-0.46;100.00
9721;BME280;4899;42.644;23.366;2023-01-29T04:35:03;94390.00;;;-0.38;100.00
9721;BME280;4899;42.644;23.366;2023-01-29T04:37:51;94393.94;;;-0.47;100.00
9721;BME280;4899;42.644;23.366;2023-01-29T04:43:08;94385.13;;;-0.44;100.00
9721;BME280;4899;42.644;23.366;2023-01-29T04:46:17;94386.34;;;-0.47;100.00
9721;BME280;4899;42.644;23.366;2023-01-29T04:48:46;94384.59;;;-0.46;100.00
9721;BME280;4899;42.644;23.366;2023-01-29T04:54:03;94378.78;;;-0.47;100.00
9721;BME280;4899;42.644;23.366;2023-01-29T04:59:32;94403.09;;;-0.41;100.00
9721;BME280;4899;42.644;23.366;2023-01-29T05:02:00;94395.34;;;-0.34;100.00
9721;BME280;4899;42.644;23.366;2023-01-29T05:04:31;94365.41;;;-0.64;100.00
9721;BME280;4899;42.644;23.366;2023-01-29T05:07:02;94392.03;;;-0.35;100.00
9721;BME280;4899;42.644;23.366;2023-01-29T05:09:29;94385.94;;;-0.39;100.00
9721;BME280;4899;42.644;23.366;2023-01-29T05:11:56;94387.47;;;-0.38;100.00
9721;BME280;4899;42.644;23.366;2023-01-29T05:14:23;94372.63;;;-0.51;100.00
9721;BME280;4899;42.644;23.366;2023-01-29T05:16:51;94399.84;;;-0.36;100.00
9721;BME280;4899;42.644;23.366;2023-01-29T05:19:18;94402.31;;;-0.41;100.00
9721;BME280;4899;42.644;23.366;2023-01-29T05:21:45;94399.28;;;-0.43;100.00
9721;BME280;4899;42.644;23.366;2023-01-29T05:24:20;94365.81;;;-0.72;100.00
9721;BME280;4899;42.644;23.366;2023-01-29T05:26:48;94401.88;;;-0.55;100.00
9721;BME280;4899;42.644;23.366;2023-01-29T05:29:33;94406.16;;;-0.39;100.00
9721;BME280;4899;42.644;23.366;2023-01-29T05:31:59;94415.19;;;-0.43;100.00
9721;BME280;4899;42.644;23.366;2023-01-29T05:34:25;94419.31;;;-0.37;100.00
9721;BME280;4899;42.644;23.366;2023-01-29T05:36:50;94419.13;;;-0.30;100.00
9721;BME280;4899;42.644;23.366;2023-01-29T05:39:16;94417.78;;;-0.38;100.00
9721;BME280;4899;42.644;23.366;2023-01-29T05:41:42;94423.88;;;-0.34;100.00
9721;BME280;4899;42.644;23.366;2023-01-29T05:44:09;94433.53;;;-0.31;100.00
9721;BME280;4899;42.644;23.366;2023-01-29T05:46:35;94407.03;;;-0.28;100.00
9721;BME280;4899;42.644;23.366;2023-01-29T05:49:00;94422.88;;;-0.33;100.00
9721;BME280;4899;42.644;23.366;2023-01-29T05:51:26;94433.88;;;-0.44;100.00
9721;BME280;4899;42.644;23.366;2023-01-29T05:53:51;94433.41;;;-0.41;100.00
9721;BME280;4899;42.644;23.366;2023-01-29T05:56:16;94422.25;;;-0.45;100.00
9721;BME280;4899;42.644;23.366;2023-01-29T05:58:42;94431.59;;;-0.45;100.00
9721;BME280;4899;42.644;23.366;2023-01-29T06:03:37;94426.41;;;-0.34;100.00
9721;BME280;4899;42.644;23.366;2023-01-29T06:06:02;94430.28;;;-0.26;100.00
9721;BME280;4899;42.644;23.366;2023-01-29T06:08:28;94434.81;;;-0.28;100.00
9721;BME280;4899;42.644;23.366;2023-01-29T06:10:53;94446.31;;;-0.20;100.00
9721;BME280;4899;42.644;23.366;2023-01-29T06:13:19;94435.19;;;-0.19;100.00
9721;BME280;4899;42.644;23.366;2023-01-29T06:15:44;94461.84;;;-0.28;100.00
9721;BME280;4899;42.644;23.366;2023-01-29T06:18:10;94452.84;;;-0.24;100.00
9721;BME280;4899;42.644;23.366;2023-01-29T06:20:36;94453.00;;;-0.09;100.00
9721;BME280;4899;42.644;23.366;2023-01-29T06:23:01;94456.00;;;-0.12;100.00
9721;BME280;4899;42.644;23.366;2023-01-29T06:25:27;94464.66;;;-0.08;100.00
9721;BME280;4899;42.644;23.366;2023-01-29T06:27:52;94458.84;;;-0.25;100.00
9721;BME280;4899;42.644;23.366;2023-01-29T06:30:18;94478.69;;;-0.17;100.00
9721;BME280;4899;42.644;23.366;2023-01-29T06:32:44;94476.94;;;-0.17;100.00
9721;BME280;4899;42.644;23.366;2023-01-29T06:35:09;94467.66;;;-0.11;100.00
9721;BME280;4899;42.644;23.366;2023-01-29T06:37:35;94468.66;;;-0.12;100.00
9721;BME280;4899;42.644;23.366;2023-01-29T06:40:01;94484.88;;;-0.08;100.00
9721;BME280;4899;42.644;23.366;2023-01-29T06:42:26;94477.28;;;-0.08;100.00
9721;BME280;4899;42.644;23.366;2023-01-29T06:44:55;94484.09;;;-0.09;100.00
9721;BME280;4899;42.644;23.366;2023-01-29T06:47:22;94482.63;;;-0.05;100.00
9721;BME280;4899;42.644;23.366;2023-01-29T06:49:48;94491.13;;;0.06;100.00
9721;BME280;4899;42.644;23.366;2023-01-29T06:52:14;94489.91;;;0.09;100.00
9721;BME280;4899;42.644;23.366;2023-01-29T06:54:40;94489.78;;;0.20;100.00
9721;BME280;4899;42.644;23.366;2023-01-29T06:57:05;94484.03;;;0.03;100.00
9721;BME280;4899;42.644;23.366;2023-01-29T06:59:31;94491.91;;;0.28;100.00
9721;BME280;4899;42.644;23.366;2023-01-29T07:01:56;94495.25;;;0.34;100.00
9721;BME280;4899;42.644;23.366;2023-01-29T07:04:22;94496.84;;;0.18;100.00
9721;BME280;4899;42.644;23.366;2023-01-29T07:06:47;94500.94;;;0.24;100.00
9721;BME280;4899;42.644;23.366;2023-01-29T07:09:13;94498.59;;;0.18;100.00
9721;BME280;4899;42.644;23.366;2023-01-29T07:11:39;94506.91;;;0.35;100.00
9721;BME280;4899;42.644;23.366;2023-01-29T07:14:05;94500.25;;;0.29;100.00
9721;BME280;4899;42.644;23.366;2023-01-29T07:16:30;94506.25;;;0.45;100.00
9721;BME280;4899;42.644;23.366;2023-01-29T07:18:56;94507.72;;;0.41;100.00
9721;BME280;4899;42.644;23.366;2023-01-29T07:21:22;94515.59;;;0.44;100.00
9721;BME280;4899;42.644;23.366;2023-01-29T07:23:48;94515.88;;;0.48;100.00
9721;BME280;4899;42.644;23.366;2023-01-29T07:26:13;94518.56;;;0.36;100.00
9721;BME280;4899;42.644;23.366;2023-01-29T07:28:39;94517.78;;;0.36;100.00
9721;BME280;4899;42.644;23.366;2023-01-29T07:31:06;94510.91;;;0.31;100.00
9721;BME280;4899;42.644;23.366;2023-01-29T07:33:32;94520.78;;;0.54;100.00
9721;BME280;4899;42.644;23.366;2023-01-29T07:35:58;94531.38;;;0.51;100.00
9721;BME280;4899;42.644;23.366;2023-01-29T07:38:23;94517.84;;;0.41;100.00
9721;BME280;4899;42.644;23.366;2023-01-29T07:40:51;94526.66;;;0.60;100.00
9721;BME280;4899;42.644;23.366;2023-01-29T07:43:17;94526.16;;;0.58;100.00
9721;BME280;4899;42.644;23.366;2023-01-29T07:45:42;94528.69;;;0.58;100.00
9721;BME280;4899;42.644;23.366;2023-01-29T07:48:11;94522.13;;;0.84;100.00
9721;BME280;4899;42.644;23.366;2023-01-29T07:50:38;94517.56;;;0.86;100.00
9721;BME280;4899;42.644;23.366;2023-01-29T07:53:04;94524.25;;;0.97;100.00
9721;BME280;4899;42.644;23.366;2023-01-29T07:55:29;94501.13;;;0.88;100.00
9721;BME280;4899;42.644;23.366;2023-01-29T07:57:56;94525.38;;;1.06;100.00
9721;BME280;4899;42.644;23.366;2023-01-29T08:00:22;94530.44;;;0.79;100.00
9721;BME280;4899;42.644;23.366;2023-01-29T08:02:47;94536.72;;;0.77;100.00
9721;BME280;4899;42.644;23.366;2023-01-29T08:05:13;94533.59;;;0.70;100.00
9721;BME280;4899;42.644;23.366;2023-01-29T08:07:38;94532.78;;;0.64;100.00
9721;BME280;4899;42.644;23.366;2023-01-29T08:10:04;94534.44;;;0.53;100.00
9721;BME280;4899;42.644;23.366;2023-01-29T08:12:30;94534.03;;;0.40;100.00
9721;BME280;4899;42.644;23.366;2023-01-29T08:14:55;94529.09;;;0.50;100.00
9721;BME280;4899;42.644;23.366;2023-01-29T08:17:21;94520.13;;;0.64;100.00
9721;BME280;4899;42.644;23.366;2023-01-29T08:19:46;94543.09;;;0.79;100.00
9721;BME280;4899;42.644;23.366;2023-01-29T08:22:12;94545.66;;;0.84;100.00
9721;BME280;4899;42.644;23.366;2023-01-29T08:24:39;94547.91;;;0.81;100.00
9721;BME280;4899;42.644;23.366;2023-01-29T08:27:05;94544.63;;;0.80;100.00
9721;BME280;4899;42.644;23.366;2023-01-29T08:29:30;94545.72;;;0.89;100.00
9721;BME280;4899;42.644;23.366;2023-01-29T08:31:55;94551.78;;;0.88;100.00
9721;BME280;4899;42.644;23.366;2023-01-29T08:34:21;94528.47;;;0.65;100.00
9721;BME280;4899;42.644;23.366;2023-01-29T08:36:47;94551.84;;;0.72;100.00
9721;BME280;4899;42.644;23.366;2023-01-29T08:39:12;94556.34;;;0.91;100.00
9721;BME280;4899;42.644;23.366;2023-01-29T08:41:38;94565.25;;;0.94;100.00
9721;BME280;4899;42.644;23.366;2023-01-29T08:44:04;94555.59;;;0.91;100.00
9721;BME280;4899;42.644;23.366;2023-01-29T08:46:30;94554.50;;;0.82;100.00
9721;BME280;4899;42.644;23.366;2023-01-29T08:48:56;94562.09;;;0.82;100.00
9721;BME280;4899;42.644;23.366;2023-01-29T08:51:23;94560.38;;;0.87;100.00
9721;BME280;4899;42.644;23.366;2023-01-29T08:53:49;94594.63;;;0.95;100.00
9721;BME280;4899;42.644;23.366;2023-01-29T08:56:15;94581.09;;;1.06;100.00
9721;BME280;4899;42.644;23.366;2023-01-29T08:58:41;94575.59;;;1.14;100.00
9721;BME280;4899;42.644;23.366;2023-01-29T09:01:09;94591.03;;;1.13;100.00
9721;BME280;4899;42.644;23.366;2023-01-29T09:03:34;94586.97;;;1.12;100.00
9721;BME280;4899;42.644;23.366;2023-01-29T09:06:00;94588.13;;;0.77;100.00
9721;BME280;4899;42.644;23.366;2023-01-29T09:08:25;94578.41;;;0.69;100.00
9721;BME280;4899;42.644;23.366;2023-01-29T09:10:51;94583.44;;;1.13;100.00
9721;BME280;4899;42.644;23.366;2023-01-29T09:13:16;94578.56;;;1.06;100.00
9721;BME280;4899;42.644;23.366;2023-01-29T09:15:42;94574.94;;;1.24;100.00
9721;BME280;4899;42.644;23.366;2023-01-29T09:18:07;94573.78;;;1.10;100.00
9721;BME280;4899;42.644;23.366;2023-01-29T09:20:33;94572.06;;;1.15;100.00
9721;BME280;4899;42.644;23.366;2023-01-29T09:23:04;94584.88;;;1.31;100.00
9721;BME280;4899;42.644;23.366;2023-01-29T09:25:30;94580.09;;;0.85;100.00
9721;BME280;4899;42.644;23.366;2023-01-29T09:27:55;94583.47;;;1.18;100.00
9721;BME280;4899;42.644;23.366;2023-01-29T09:30:21;94579.09;;;0.86;100.00
9721;BME280;4899;42.644;23.366;2023-01-29T09:32:46;94562.84;;;0.82;100.00
9721;BME280;4899;42.644;23.366;2023-01-29T09:35:12;94577.03;;;1.32;100.00
9721;BME280;4899;42.644;23.366;2023-01-29T09:37:37;94573.78;;;1.10;100.00
9721;BME280;4899;42.644;23.366;2023-01-29T09:40:03;94565.09;;;0.57;100.00
9721;BME280;4899;42.644;23.366;2023-01-29T09:42:45;94569.09;;;0.53;100.00
9721;BME280;4899;42.644;23.366;2023-01-29T09:45:18;94561.28;;;0.76;100.00
9721;BME280;4899;42.644;23.366;2023-01-29T09:47:44;94573.09;;;0.49;100.00
9721;BME280;4899;42.644;23.366;2023-01-29T09:50:18;94564.69;;;0.65;100.00
9721;BME280;4899;42.644;23.366;2023-01-29T09:53:00;94562.69;;;0.67;100.00
9721;BME280;4899;42.644;23.366;2023-01-29T09:55:32;94546.75;;;0.93;100.00
9721;BME280;4899;42.644;23.366;2023-01-29T09:58:13;94561.59;;;1.07;100.00
9721;BME280;4899;42.644;23.366;2023-01-29T10:00:50;94557.00;;;1.31;100.00
9721;BME280;4899;42.644;23.366;2023-01-29T10:03:38;94556.28;;;1.08;100.00
9721;BME280;4899;42.644;23.366;2023-01-29T10:06:20;94551.00;;;0.88;100.00
9721;BME280;4899;42.644;23.366;2023-01-29T10:09:07;94547.75;;;0.92;100.00
9721;BME280;4899;42.644;23.366;2023-01-29T10:14:31;94553.44;;;0.56;100.00
9721;BME280;4899;42.644;23.366;2023-01-29T10:24:59;94543.91;;;1.12;100.00
9721;BME280;4899;42.644;23.366;2023-01-29T10:27:32;94529.28;;;1.19;100.00
9721;BME280;4899;42.644;23.366;2023-01-29T10:29:59;94539.31;;;1.09;100.00
9721;BME280;4899;42.644;23.366;2023-01-29T10:32:26;94540.13;;;1.14;100.00
9721;BME280;4899;42.644;23.366;2023-01-29T10:34:58;94555.84;;;1.16;100.00
9721;BME280;4899;42.644;23.366;2023-01-29T10:37:38;94537.78;;;1.08;100.00
9721;BME280;4899;42.644;23.366;2023-01-29T10:42:48;94534.13;;;0.99;100.00
9721;BME280;4899;42.644;23.366;2023-01-29T10:48:16;94541.47;;;0.95;100.00
9721;BME280;4899;42.644;23.366;2023-01-29T10:58:48;94523.03;;;1.00;100.00
9721;BME280;4899;42.644;23.366;2023-01-29T11:01:15;94526.78;;;0.97;100.00
9721;BME280;4899;42.644;23.366;2023-01-29T11:03:41;94531.47;;;1.10;100.00
9721;BME280;4899;42.644;23.366;2023-01-29T11:06:11;94531.72;;;1.09;100.00
9721;BME280;4899;42.644;23.366;2023-01-29T11:11:14;94513.47;;;1.07;100.00
9721;BME280;4899;42.644;23.366;2023-01-29T11:16:11;94484.84;;;0.79;100.00
9721;BME280;4899;42.644;23.366;2023-01-29T11:18:56;94502.00;;;1.26;100.00
9721;BME280;4899;42.644;23.366;2023-01-29T11:21:24;94518.63;;;1.17;100.00
9721;BME280;4899;42.644;23.366;2023-01-29T11:26:35;94506.09;;;1.32;100.00
9721;BME280;4899;42.644;23.366;2023-01-29T11:29:02;94516.22;;;1.32;100.00
9721;BME280;4899;42.644;23.366;2023-01-29T11:31:37;94511.41;;;1.31;100.00
9721;BME280;4899;42.644;23.366;2023-01-29T11:34:19;94498.00;;;1.35;100.00
9721;BME280;4899;42.644;23.366;2023-01-29T11:36:45;94494.38;;;1.26;100.00
9721;BME280;4899;42.644;23.366;2023-01-29T11:39:19;94488.09;;;1.34;100.00
9721;BME280;4899;42.644;23.366;2023-01-29T11:44:28;94488.53;;;1.58;100.00
9721;BME280;4899;42.644;23.366;2023-01-29T11:46:55;94466.72;;;1.57;100.00
9721;BME280;4899;42.644;23.366;2023-01-29T11:49:30;94475.03;;;1.89;100.00
9721;BME280;4899;42.644;23.366;2023-01-29T11:51:59;94470.44;;;1.86;100.00
9721;BME280;4899;42.644;23.366;2023-01-29T11:54:31;94469.88;;;1.74;100.00
9721;BME280;4899;42.644;23.366;2023-01-29T11:56:58;94473.41;;;1.73;100.00
9721;BME280;4899;42.644;23.366;2023-01-29T11:59:45;94470.88;;;1.73;100.00
9721;BME280;4899;42.644;23.366;2023-01-29T12:05:04;94471.00;;;1.51;100.00
9721;BME280;4899;42.644;23.366;2023-01-29T12:07:30;94485.69;;;1.17;100.00
9721;BME280;4899;42.644;23.366;2023-01-29T12:09:57;94477.13;;;1.55;100.00
9721;BME280;4899;42.644;23.366;2023-01-29T12:12:41;94471.78;;;1.51;100.00
9721;BME280;4899;42.644;23.366;2023-01-29T12:15:21;94455.81;;;1.51;100.00
9721;BME280;4899;42.644;23.366;2023-01-29T12:20:45;94455.06;;;1.56;100.00
9721;BME280;4899;42.644;23.366;2023-01-29T12:23:23;94478.94;;;1.65;100.00
9721;BME280;4899;42.644;23.366;2023-01-29T12:31:20;94472.97;;;1.12;100.00
9721;BME280;4899;42.644;23.366;2023-01-29T12:37:09;94461.28;;;1.06;100.00
9721;BME280;4899;42.644;23.366;2023-01-29T12:39:18;94474.50;;;1.13;100.00
9721;BME280;4899;42.644;23.366;2023-01-29T12:44:24;94468.06;;;1.27;100.00
9721;BME280;4899;42.644;23.366;2023-01-29T12:46:55;94467.84;;;1.34;100.00
9721;BME280;4899;42.644;23.366;2023-01-29T12:49:34;94465.28;;;1.29;100.00
9721;BME280;4899;42.644;23.366;2023-01-29T12:52:13;94461.97;;;1.28;100.00
9721;BME280;4899;42.644;23.366;2023-01-29T12:54:54;94470.63;;;1.32;100.00
9721;BME280;4899;42.644;23.366;2023-01-29T12:57:31;94469.00;;;1.21;100.00
9721;BME280;4899;42.644;23.366;2023-01-29T13:00:45;94469.84;;;1.32;100.00
9721;BME280;4899;42.644;23.366;2023-01-29T13:05:57;94470.09;;;1.30;100.00
9721;BME280;4899;42.644;23.366;2023-01-29T13:08:47;94475.88;;;1.26;100.00
9721;BME280;4899;42.644;23.366;2023-01-29T13:11:44;94471.41;;;1.06;100.00
9721;BME280;4899;42.644;23.366;2023-01-29T13:14:23;94463.63;;;1.12;100.00
9721;BME280;4899;42.644;23.366;2023-01-29T13:16:52;94456.97;;;1.01;100.00
9721;BME280;4899;42.644;23.366;2023-01-29T13:19:33;94466.41;;;1.11;100.00
9721;BME280;4899;42.644;23.366;2023-01-29T13:22:02;94464.34;;;1.08;100.00
9721;BME280;4899;42.644;23.366;2023-01-29T13:24:39;94465.78;;;1.31;100.00
9721;BME280;4899;42.644;23.366;2023-01-29T13:27:06;94461.38;;;1.16;100.00
9721;BME280;4899;42.644;23.366;2023-01-29T13:29:42;94462.03;;;1.38;100.00
9721;BME280;4899;42.644;23.366;2023-01-29T13:32:09;94472.78;;;1.50;100.00
9721;BME280;4899;42.644;23.366;2023-01-29T13:34:43;94470.66;;;1.37;100.00
9721;BME280;4899;42.644;23.366;2023-01-29T13:37:17;94468.53;;;1.61;100.00
9721;BME280;4899;42.644;23.366;2023-01-29T13:39:49;94480.13;;;1.52;100.00
9721;BME280;4899;42.644;23.366;2023-01-29T13:42:22;94479.47;;;1.67;100.00
9721;BME280;4899;42.644;23.366;2023-01-29T13:44:49;94478.88;;;1.54;100.00
9721;BME280;4899;42.644;23.366;2023-01-29T13:47:25;94500.53;;;1.35;100.00
9721;BME280;4899;42.644;23.366;2023-01-29T13:49:58;94490.66;;;1.39;100.00
9721;BME280;4899;42.644;23.366;2023-01-29T13:55:00;94501.31;;;1.09;100.00
9721;BME280;4899;42.644;23.366;2023-01-29T14:02:45;94512.22;;;0.82;100.00
9721;BME280;4899;42.644;23.366;2023-01-29T14:10:30;94512.06;;;0.67;100.00
9721;BME280;4899;42.644;23.366;2023-01-29T14:15:33;94513.94;;;0.77;100.00
9721;BME280;4899;42.644;23.366;2023-01-29T14:18:04;94496.47;;;0.75;100.00
9721;BME280;4899;42.644;23.366;2023-01-29T14:20:39;94511.84;;;0.96;100.00
9721;BME280;4899;42.644;23.366;2023-01-29T14:23:07;94507.63;;;0.79;100.00
9721;BME280;4899;42.644;23.366;2023-01-29T14:25:45;94513.00;;;1.10;100.00
9721;BME280;4899;42.644;23.366;2023-01-29T14:28:21;94512.03;;;0.89;100.00
9721;BME280;4899;42.644;23.366;2023-01-29T14:30:48;94522.25;;;0.99;100.00
9721;BME280;4899;42.644;23.366;2023-01-29T14:35:57;94524.16;;;0.87;100.00
9721;BME280;4899;42.644;23.366;2023-01-29T14:38:25;94521.31;;;1.05;100.00
9721;BME280;4899;42.644;23.366;2023-01-29T14:41:02;94521.09;;;1.12;100.00
9721;BME280;4899;42.644;23.366;2023-01-29T14:43:29;94536.50;;;1.05;100.00
9721;BME280;4899;42.644;23.366;2023-01-29T14:48:58;94530.31;;;0.96;100.00
9721;BME280;4899;42.644;23.366;2023-01-29T14:51:25;94525.56;;;1.00;100.00
9721;BME280;4899;42.644;23.366;2023-01-29T14:54:01;94526.63;;;1.04;100.00
9721;BME280;4899;42.644;23.366;2023-01-29T14:59:35;94525.78;;;0.98;100.00
9721;BME280;4899;42.644;23.366;2023-01-29T15:02:24;94514.63;;;0.72;100.00
9721;BME280;4899;42.644;23.366;2023-01-29T15:04:56;94523.75;;;0.73;100.00
9721;BME280;4899;42.644;23.366;2023-01-29T15:07:55;94526.59;;;0.77;100.00
9721;BME280;4899;42.644;23.366;2023-01-29T15:10:43;94518.06;;;0.83;100.00
9721;BME280;4899;42.644;23.366;2023-01-29T15:15:53;94507.13;;;0.77;100.00
9721;BME280;4899;42.644;23.366;2023-01-29T15:18:40;94517.13;;;0.67;100.00
9721;BME280;4899;42.644;23.366;2023-01-29T15:23:36;94526.66;;;0.60;100.00
9721;BME280;4899;42.644;23.366;2023-01-29T15:26:04;94520.94;;;0.70;100.00
9721;BME280;4899;42.644;23.366;2023-01-29T15:28:32;94526.19;;;0.63;100.00
9721;BME280;4899;42.644;23.366;2023-01-29T15:31:00;94525.25;;;0.69;100.00
9721;BME280;4899;42.644;23.366;2023-01-29T15:33:29;94520.94;;;0.70;100.00